sensor_id;sensor_type;location;lat;lon;timestamp;P1;durP1;ratioP1;P2;durP2;ratioP2
20443;SDS011;10381;53.730;10.010;2023-02-01T00:01:22;982.20;;;884.28;;
20443;SDS011;10381;53.730;10.010;2023-02-01T00:05:23;1006.28;;;901.00;;
20443;SDS011;10381;53.730;10.010;2023-02-01T00:09:23;992.65;;;890.08;;
20443;SDS011;10381;53.730;10.010;2023-02-01T00:13:24;909.67;;;823.30;;
20443;SDS011;10381;53.730;10.010;2023-02-01T00:17:24;889.00;;;803.77;;
20443;SDS011;10381;53.730;10.010;2023-02-01T00:21:24;792.42;;;718.00;;
20443;SDS011;10381;53.730;10.010;2023-02-01T00:25:25;855.60;;;773.42;;
20443;SDS011;10381;53.730;10.010;2023-02-01T00:29:25;846.87;;;763.97;;
20443;SDS011;10381;53.730;10.010;2023-02-01T00:33:26;850.25;;;767.35;;
20443;SDS011;10381;53.730;10.010;2023-02-01T00:37:27;827.22;;;746.83;;
20443;SDS011;10381;53.730;10.010;2023-02-01T00:41:27;742.23;;;672.23;;
20443;SDS011;10381;53.730;10.010;2023-02-01T00:45:27;463.85;;;416.42;;
20443;SDS011;10381;53.730;10.010;2023-02-01T00:49:28;189.33;;;169.47;;
20443;SDS011;10381;53.730;10.010;2023-02-01T00:53:29;199.82;;;177.98;;
20443;SDS011;10381;53.730;10.010;2023-02-01T00:57:30;153.52;;;138.98;;
20443;SDS011;10381;53.730;10.010;2023-02-01T01:01:30;143.25;;;129.60;;
20443;SDS011;10381;53.730;10.010;2023-02-01T01:05:30;144.57;;;131.30;;
20443;SDS011;10381;53.730;10.010;2023-02-01T01:09:31;147.83;;;133.60;;
20443;SDS011;10381;53.730;10.010;2023-02-01T01:13:31;149.50;;;133.90;;
20443;SDS011;10381;53.730;10.010;2023-02-01T01:17:31;144.87;;;131.10;;
20443;SDS011;10381;53.730;10.010;2023-02-01T01:21:32;156.82;;;140.60;;
20443;SDS011;10381;53.730;10.010;2023-02-01T01:25:37;168.15;;;152.07;;
20443;SDS011;10381;53.730;10.010;2023-02-01T01:29:38;146.13;;;131.10;;
20443;SDS011;10381;53.730;10.010;2023-02-01T01:33:39;156.30;;;140.03;;
20443;SDS011;10381;53.730;10.010;2023-02-01T01:37:39;159.27;;;141.97;;
20443;SDS011;10381;53.730;10.010;2023-02-01T01:41:39;166.95;;;150.63;;
20443;SDS011;10381;53.730;10.010;2023-02-01T01:45:40;145.98;;;131.23;;
20443;SDS011;10381;53.730;10.010;2023-02-01T01:49:40;131.45;;;118.63;;
20443;SDS011;10381;53.730;10.010;2023-02-01T01:53:45;131.15;;;117.88;;
20443;SDS011;10381;53.730;10.010;2023-02-01T01:57:55;120.03;;;108.88;;
20443;SDS011;10381;53.730;10.010;2023-02-01T02:01:59;105.13;;;95.10;;
20443;SDS011;10381;53.730;10.010;2023-02-01T02:06:00;127.90;;;114.70;;
20443;SDS011;10381;53.730;10.010;2023-02-01T02:10:05;129.98;;;117.53;;
20443;SDS011;10381;53.730;10.010;2023-02-01T02:14:07;120.25;;;104.70;;
20443;SDS011;10381;53.730;10.010;2023-02-01T02:18:54;106.03;;;94.47;;
20443;SDS011;10381;53.730;10.010;2023-02-01T02:22:48;122.68;;;111.15;;
20443;SDS011;10381;53.730;10.010;2023-02-01T02:27:10;120.13;;;107.90;;
20443;SDS011;10381;53.730;10.010;2023-02-01T02:31:35;124.38;;;111.35;;
20443;SDS011;10381;53.730;10.010;2023-02-01T02:53:34;1423.30;;;865.75;;
20443;SDS011;10381;53.730;10.010;2023-02-01T02:58:02;1547.70;;;946.45;;
20443;SDS011;10381;53.730;10.010;2023-02-01T03:02:23;1615.82;;;999.90;;
20443;SDS011;10381;53.730;10.010;2023-02-01T03:06:45;1440.43;;;885.38;;
20443;SDS011;10381;53.730;10.010;2023-02-01T03:15:04;1434.72;;;934.63;;
20443;SDS011;10381;53.730;10.010;2023-02-01T03:19:09;1427.07;;;942.63;;
20443;SDS011;10381;53.730;10.010;2023-02-01T03:23:22;1397.45;;;949.13;;
20443;SDS011;10381;53.730;10.010;2023-02-01T03:27:30;1418.22;;;948.55;;
20443;SDS011;10381;53.730;10.010;2023-02-01T03:31:34;1412.60;;;973.92;;
20443;SDS011;10381;53.730;10.010;2023-02-01T03:35:43;1400.30;;;995.42;;
20443;SDS011;10381;53.730;10.010;2023-02-01T03:39:50;1384.95;;;997.95;;
20443;SDS011;10381;53.730;10.010;2023-02-01T03:44:01;1370.38;;;999.83;;
20443;SDS011;10381;53.730;10.010;2023-02-01T03:48:08;1369.93;;;992.53;;
20443;SDS011;10381;53.730;10.010;2023-02-01T03:52:13;1392.15;;;995.33;;
20443;SDS011;10381;53.730;10.010;2023-02-01T03:56:17;1359.28;;;958.05;;
20443;SDS011;10381;53.730;10.010;2023-02-01T04:00:23;1348.25;;;947.92;;
20443;SDS011;10381;53.730;10.010;2023-02-01T04:04:25;1360.43;;;961.78;;
20443;SDS011;10381;53.730;10.010;2023-02-01T04:08:25;1313.33;;;932.83;;
20443;SDS011;10381;53.730;10.010;2023-02-01T04:12:26;1292.07;;;921.17;;
20443;SDS011;10381;53.730;10.010;2023-02-01T04:16:26;1313.03;;;933.00;;
20443;SDS011;10381;53.730;10.010;2023-02-01T04:20:26;1284.47;;;915.70;;
20443;SDS011;10381;53.730;10.010;2023-02-01T04:24:28;1280.13;;;921.65;;
20443;SDS011;10381;53.730;10.010;2023-02-01T04:28:28;1266.33;;;927.47;;
20443;SDS011;10381;53.730;10.010;2023-02-01T04:32:29;1289.80;;;940.45;;
20443;SDS011;10381;53.730;10.010;2023-02-01T04:36:29;1283.13;;;934.80;;
20443;SDS011;10381;53.730;10.010;2023-02-01T04:40:29;1254.83;;;917.67;;
20443;SDS011;10381;53.730;10.010;2023-02-01T04:44:29;1221.43;;;910.40;;
20443;SDS011;10381;53.730;10.010;2023-02-01T04:48:30;1207.88;;;911.13;;
20443;SDS011;10381;53.730;10.010;2023-02-01T04:52:30;1200.43;;;913.97;;
20443;SDS011;10381;53.730;10.010;2023-02-01T04:56:30;1189.50;;;905.37;;
20443;SDS011;10381;53.730;10.010;2023-02-01T05:00:31;1174.32;;;894.65;;
20443;SDS011;10381;53.730;10.010;2023-02-01T05:04:31;1208.97;;;923.33;;
20443;SDS011;10381;53.730;10.010;2023-02-01T05:08:32;1196.85;;;936.65;;
20443;SDS011;10381;53.730;10.010;2023-02-01T05:12:32;1168.78;;;911.70;;
20443;SDS011;10381;53.730;10.010;2023-02-01T05:16:51;1164.72;;;909.40;;
20443;SDS011;10381;53.730;10.010;2023-02-01T05:20:54;1164.45;;;921.85;;
20443;SDS011;10381;53.730;10.010;2023-02-01T05:24:55;1151.72;;;912.60;;
20443;SDS011;10381;53.730;10.010;2023-02-01T05:28:55;1151.47;;;912.92;;
20443;SDS011;10381;53.730;10.010;2023-02-01T05:32:56;1172.10;;;923.78;;
20443;SDS011;10381;53.730;10.010;2023-02-01T05:36:56;1191.80;;;891.43;;
20443;SDS011;10381;53.730;10.010;2023-02-01T05:40:56;1075.00;;;871.03;;
20443;SDS011;10381;53.730;10.010;2023-02-01T05:44:56;1061.70;;;870.67;;
20443;SDS011;10381;53.730;10.010;2023-02-01T05:48:57;1041.70;;;846.67;;
20443;SDS011;10381;53.730;10.010;2023-02-01T05:52:57;1048.97;;;857.20;;
20443;SDS011;10381;53.730;10.010;2023-02-01T05:56:57;1049.43;;;859.40;;
20443;SDS011;10381;53.730;10.010;2023-02-01T06:01:01;1018.20;;;821.93;;
20443;SDS011;10381;53.730;10.010;2023-02-01T06:05:02;1004.80;;;806.03;;
20443;SDS011;10381;53.730;10.010;2023-02-01T06:09:03;1002.88;;;819.60;;
20443;SDS011;10381;53.730;10.010;2023-02-01T06:13:03;974.45;;;802.88;;
20443;SDS011;10381;53.730;10.010;2023-02-01T06:17:04;949.03;;;760.38;;
20443;SDS011;10381;53.730;10.010;2023-02-01T06:21:06;948.85;;;768.95;;
20443;SDS011;10381;53.730;10.010;2023-02-01T06:25:07;948.87;;;758.70;;
20443;SDS011;10381;53.730;10.010;2023-02-01T06:29:09;956.13;;;754.60;;
20443;SDS011;10381;53.730;10.010;2023-02-01T06:33:10;934.25;;;747.67;;
20443;SDS011;10381;53.730;10.010;2023-02-01T06:37:10;916.63;;;728.20;;
20443;SDS011;10381;53.730;10.010;2023-02-01T06:41:11;903.30;;;723.40;;
20443;SDS011;10381;53.730;10.010;2023-02-01T06:45:11;875.37;;;714.10;;
20443;SDS011;10381;53.730;10.010;2023-02-01T06:49:11;878.33;;;711.00;;
20443;SDS011;10381;53.730;10.010;2023-02-01T06:53:12;871.23;;;693.40;;
20443;SDS011;10381;53.730;10.010;2023-02-01T06:57:12;848.22;;;679.80;;
20443;SDS011;10381;53.730;10.010;2023-02-01T07:01:12;880.55;;;678.70;;
20443;SDS011;10381;53.730;10.010;2023-02-01T07:05:13;856.85;;;677.72;;
20443;SDS011;10381;53.730;10.010;2023-02-01T07:09:14;850.65;;;667.75;;
20443;SDS011;10381;53.730;10.010;2023-02-01T07:13:14;836.22;;;654.55;;
20443;SDS011;10381;53.730;10.010;2023-02-01T07:17:14;835.60;;;652.27;;
20443;SDS011;10381;53.730;10.010;2023-02-01T07:21:14;810.13;;;646.20;;
20443;SDS011;10381;53.730;10.010;2023-02-01T07:25:15;798.73;;;632.77;;
20443;SDS011;10381;53.730;10.010;2023-02-01T07:29:15;795.30;;;641.55;;
20443;SDS011;10381;53.730;10.010;2023-02-01T07:33:17;825.40;;;639.33;;
20443;SDS011;10381;53.730;10.010;2023-02-01T07:37:19;831.85;;;637.75;;
20443;SDS011;10381;53.730;10.010;2023-02-01T07:41:19;883.20;;;683.27;;
20443;SDS011;10381;53.730;10.010;2023-02-01T07:45:19;942.17;;;706.57;;
20443;SDS011;10381;53.730;10.010;2023-02-01T07:49:20;969.45;;;735.92;;
20443;SDS011;10381;53.730;10.010;2023-02-01T07:53:20;1001.57;;;749.73;;
20443;SDS011;10381;53.730;10.010;2023-02-01T07:57:20;1038.63;;;781.23;;
20443;SDS011;10381;53.730;10.010;2023-02-01T08:01:22;1063.70;;;786.77;;
20443;SDS011;10381;53.730;10.010;2023-02-01T08:05:26;1098.72;;;792.65;;
20443;SDS011;10381;53.730;10.010;2023-02-01T08:09:27;1153.82;;;817.60;;
20443;SDS011;10381;53.730;10.010;2023-02-01T08:13:27;1150.88;;;828.35;;
20443;SDS011;10381;53.730;10.010;2023-02-01T08:17:27;1148.13;;;799.63;;
20443;SDS011;10381;53.730;10.010;2023-02-01T08:21:28;1161.10;;;818.80;;
20443;SDS011;10381;53.730;10.010;2023-02-01T08:25:36;1148.47;;;805.38;;
20443;SDS011;10381;53.730;10.010;2023-02-01T08:29:36;1129.73;;;793.20;;
20443;SDS011;10381;53.730;10.010;2023-02-01T08:33:37;1125.93;;;779.57;;
20443;SDS011;10381;53.730;10.010;2023-02-01T08:37:37;1167.75;;;797.45;;
20443;SDS011;10381;53.730;10.010;2023-02-01T08:41:38;1190.63;;;797.13;;
20443;SDS011;10381;53.730;10.010;2023-02-01T08:45:39;1252.70;;;804.97;;
20443;SDS011;10381;53.730;10.010;2023-02-01T08:49:39;1242.32;;;825.30;;
20443;SDS011;10381;53.730;10.010;2023-02-01T08:53:40;1219.40;;;813.57;;
20443;SDS011;10381;53.730;10.010;2023-02-01T08:57:41;1194.55;;;817.95;;
20443;SDS011;10381;53.730;10.010;2023-02-01T09:01:42;1167.18;;;803.08;;
20443;SDS011;10381;53.730;10.010;2023-02-01T09:05:42;1164.23;;;807.13;;
20443;SDS011;10381;53.730;10.010;2023-02-01T09:09:43;1186.95;;;813.67;;
20443;SDS011;10381;53.730;10.010;2023-02-01T09:13:44;1167.15;;;803.70;;
20443;SDS011;10381;53.730;10.010;2023-02-01T09:17:45;1169.75;;;799.67;;
20443;SDS011;10381;53.730;10.010;2023-02-01T09:21:45;1158.03;;;807.40;;
20443;SDS011;10381;53.730;10.010;2023-02-01T09:25:46;1180.10;;;812.50;;
20443;SDS011;10381;53.730;10.010;2023-02-01T09:29:46;1169.75;;;815.95;;
20443;SDS011;10381;53.730;10.010;2023-02-01T09:33:52;1197.15;;;824.80;;
20443;SDS011;10381;53.730;10.010;2023-02-01T09:37:52;1166.17;;;816.00;;
20443;SDS011;10381;53.730;10.010;2023-02-01T09:46:06;1179.07;;;812.72;;
20443;SDS011;10381;53.730;10.010;2023-02-01T09:50:20;1128.80;;;797.05;;
20443;SDS011;10381;53.730;10.010;2023-02-01T09:54:28;1100.20;;;802.42;;
20443;SDS011;10381;53.730;10.010;2023-02-01T10:03:30;1031.95;;;836.28;;
20443;SDS011;10381;53.730;10.010;2023-02-01T10:11:55;968.58;;;866.45;;
20443;SDS011;10381;53.730;10.010;2023-02-01T10:20:19;962.50;;;864.42;;
20443;SDS011;10381;53.730;10.010;2023-02-01T10:28:39;606.63;;;550.03;;
20443;SDS011;10381;53.730;10.010;2023-02-01T10:32:42;798.80;;;721.95;;
20443;SDS011;10381;53.730;10.010;2023-02-01T10:36:48;859.05;;;759.75;;
20443;SDS011;10381;53.730;10.010;2023-02-01T10:40:53;917.17;;;762.67;;
20443;SDS011;10381;53.730;10.010;2023-02-01T10:45:00;952.53;;;768.20;;
20443;SDS011;10381;53.730;10.010;2023-02-01T10:49:04;961.28;;;783.42;;
20443;SDS011;10381;53.730;10.010;2023-02-01T10:57:10;961.05;;;803.13;;
20443;SDS011;10381;53.730;10.010;2023-02-01T11:01:21;906.58;;;813.97;;
20443;SDS011;10381;53.730;10.010;2023-02-01T11:05:28;900.20;;;812.33;;
20443;SDS011;10381;53.730;10.010;2023-02-01T11:09:48;852.67;;;774.95;;
20443;SDS011;10381;53.730;10.010;2023-02-01T11:13:58;696.13;;;633.03;;
20443;SDS011;10381;53.730;10.010;2023-02-01T11:18:12;699.65;;;636.78;;
20443;SDS011;10381;53.730;10.010;2023-02-01T11:22:16;779.90;;;708.05;;
20443;SDS011;10381;53.730;10.010;2023-02-01T11:26:21;757.35;;;689.05;;
20443;SDS011;10381;53.730;10.010;2023-02-01T11:30:36;715.17;;;652.10;;
20443;SDS011;10381;53.730;10.010;2023-02-01T11:34:47;686.65;;;628.03;;
20443;SDS011;10381;53.730;10.010;2023-02-01T11:38:51;667.55;;;608.88;;
20443;SDS011;10381;53.730;10.010;2023-02-01T11:51:31;503.40;;;457.88;;
20443;SDS011;10381;53.730;10.010;2023-02-01T12:13:36;142.27;;;129.00;;
20443;SDS011;10381;53.730;10.010;2023-02-01T12:17:51;263.63;;;239.50;;
20443;SDS011;10381;53.730;10.010;2023-02-01T12:31:04;1233.57;;;837.10;;
20443;SDS011;10381;53.730;10.010;2023-02-01T12:48:30;1289.43;;;881.85;;
20443;SDS011;10381;53.730;10.010;2023-02-01T13:00:53;1312.20;;;923.15;;
20443;SDS011;10381;53.730;10.010;2023-02-01T13:05:20;1176.05;;;822.20;;
20443;SDS011;10381;53.730;10.010;2023-02-01T13:17:44;1072.60;;;777.97;;
20443;SDS011;10381;53.730;10.010;2023-02-01T13:21:54;1075.90;;;782.35;;
20443;SDS011;10381;53.730;10.010;2023-02-01T13:25:57;997.58;;;784.10;;
20443;SDS011;10381;53.730;10.010;2023-02-01T13:29:59;1061.40;;;796.88;;
20443;SDS011;10381;53.730;10.010;2023-02-01T13:47:42;1156.97;;;810.45;;
20443;SDS011;10381;53.730;10.010;2023-02-01T13:51:46;1155.40;;;804.67;;
20443;SDS011;10381;53.730;10.010;2023-02-01T13:55:58;1157.95;;;803.95;;
20443;SDS011;10381;53.730;10.010;2023-02-01T14:00:05;1181.43;;;818.08;;
20443;SDS011;10381;53.730;10.010;2023-02-01T14:13:22;1206.40;;;835.35;;
20443;SDS011;10381;53.730;10.010;2023-02-01T14:25:23;1165.35;;;825.40;;
20443;SDS011;10381;53.730;10.010;2023-02-01T14:33:42;1159.55;;;822.75;;
20443;SDS011;10381;53.730;10.010;2023-02-01T14:37:43;1152.20;;;802.03;;
20443;SDS011;10381;53.730;10.010;2023-02-01T14:41:44;1142.85;;;806.85;;
20443;SDS011;10381;53.730;10.010;2023-02-01T14:45:48;1132.63;;;801.17;;
20443;SDS011;10381;53.730;10.010;2023-02-01T14:49:58;1126.50;;;799.58;;
20443;SDS011;10381;53.730;10.010;2023-02-01T14:54:04;1134.88;;;795.47;;
20443;SDS011;10381;53.730;10.010;2023-02-01T15:02:26;1131.25;;;786.70;;
20443;SDS011;10381;53.730;10.010;2023-02-01T15:10:45;1133.07;;;797.92;;
20443;SDS011;10381;53.730;10.010;2023-02-01T15:19:19;1110.85;;;790.92;;
20443;SDS011;10381;53.730;10.010;2023-02-01T15:23:24;1110.88;;;804.28;;
20443;SDS011;10381;53.730;10.010;2023-02-01T15:27:25;1121.25;;;798.60;;
20443;SDS011;10381;53.730;10.010;2023-02-01T15:31:34;1114.18;;;790.75;;
20443;SDS011;10381;53.730;10.010;2023-02-01T15:35:38;1140.95;;;802.47;;
20443;SDS011;10381;53.730;10.010;2023-02-01T15:44:52;1196.53;;;819.72;;
20443;SDS011;10381;53.730;10.010;2023-02-01T15:48:46;1231.82;;;824.33;;
20443;SDS011;10381;53.730;10.010;2023-02-01T15:52:52;1230.05;;;822.95;;
20443;SDS011;10381;53.730;10.010;2023-02-01T15:56:55;1208.68;;;819.85;;
20443;SDS011;10381;53.730;10.010;2023-02-01T16:00:57;1223.50;;;820.63;;
20443;SDS011;10381;53.730;10.010;2023-02-01T16:05:02;1206.65;;;805.00;;
20443;SDS011;10381;53.730;10.010;2023-02-01T16:09:09;1229.13;;;813.42;;
20443;SDS011;10381;53.730;10.010;2023-02-01T16:13:11;1231.03;;;810.67;;
20443;SDS011;10381;53.730;10.010;2023-02-01T16:17:12;1250.65;;;824.85;;
20443;SDS011;10381;53.730;10.010;2023-02-01T16:21:13;1250.83;;;816.10;;
20443;SDS011;10381;53.730;10.010;2023-02-01T16:25:13;1264.38;;;820.88;;
20443;SDS011;10381;53.730;10.010;2023-02-01T16:29:13;1227.32;;;804.53;;
20443;SDS011;10381;53.730;10.010;2023-02-01T16:33:16;1230.00;;;805.10;;
20443;SDS011;10381;53.730;10.010;2023-02-01T16:37:21;1226.60;;;812.05;;
20443;SDS011;10381;53.730;10.010;2023-02-01T16:41:23;1181.32;;;806.05;;
20443;SDS011;10381;53.730;10.010;2023-02-01T16:45:24;1192.15;;;804.67;;
20443;SDS011;10381;53.730;10.010;2023-02-01T16:49:24;1171.57;;;807.80;;
20443;SDS011;10381;53.730;10.010;2023-02-01T16:53:25;1186.68;;;814.55;;
20443;SDS011;10381;53.730;10.010;2023-02-01T16:57:27;1111.65;;;834.17;;
20443;SDS011;10381;53.730;10.010;2023-02-01T17:01:29;1111.00;;;849.00;;
20443;SDS011;10381;53.730;10.010;2023-02-01T17:05:29;1012.03;;;884.10;;
20443;SDS011;10381;53.730;10.010;2023-02-01T17:09:31;1003.15;;;902.65;;
20443;SDS011;10381;53.730;10.010;2023-02-01T17:13:32;965.35;;;879.65;;
20443;SDS011;10381;53.730;10.010;2023-02-01T17:17:35;906.38;;;828.30;;
20443;SDS011;10381;53.730;10.010;2023-02-01T17:21:47;828.13;;;756.92;;
20443;SDS011;10381;53.730;10.010;2023-02-01T17:25:53;705.67;;;644.65;;
20443;SDS011;10381;53.730;10.010;2023-02-01T17:29:54;546.15;;;499.35;;
20443;SDS011;10381;53.730;10.010;2023-02-01T17:33:56;436.83;;;401.38;;
20443;SDS011;10381;53.730;10.010;2023-02-01T17:37:56;413.53;;;380.30;;
20443;SDS011;10381;53.730;10.010;2023-02-01T17:41:57;453.23;;;416.63;;
20443;SDS011;10381;53.730;10.010;2023-02-01T17:45:59;395.70;;;364.23;;
20443;SDS011;10381;53.730;10.010;2023-02-01T17:50:03;360.42;;;332.20;;
20443;SDS011;10381;53.730;10.010;2023-02-01T17:54:03;233.68;;;214.02;;
20443;SDS011;10381;53.730;10.010;2023-02-01T17:58:03;90.65;;;80.85;;
20443;SDS011;10381;53.730;10.010;2023-02-01T18:02:25;98.95;;;88.07;;
20443;SDS011;10381;53.730;10.010;2023-02-01T18:06:25;162.10;;;146.68;;
20443;SDS011;10381;53.730;10.010;2023-02-01T18:10:26;251.88;;;229.90;;
20443;SDS011;10381;53.730;10.010;2023-02-01T18:14:26;275.70;;;253.00;;
20443;SDS011;10381;53.730;10.010;2023-02-01T18:18:26;300.40;;;273.07;;
20443;SDS011;10381;53.730;10.010;2023-02-01T18:22:29;136.68;;;123.18;;
20443;SDS011;10381;53.730;10.010;2023-02-01T18:26:30;138.00;;;124.63;;
20443;SDS011;10381;53.730;10.010;2023-02-01T18:30:31;116.25;;;101.55;;
20443;SDS011;10381;53.730;10.010;2023-02-01T18:34:33;89.40;;;55.05;;
20443;SDS011;10381;53.730;10.010;2023-02-01T18:38:33;89.23;;;73.80;;
20443;SDS011;10381;53.730;10.010;2023-02-01T18:42:33;58.83;;;49.20;;
20443;SDS011;10381;53.730;10.010;2023-02-01T18:46:33;53.17;;;44.17;;
20443;SDS011;10381;53.730;10.010;2023-02-01T18:50:34;64.33;;;45.77;;
20443;SDS011;10381;53.730;10.010;2023-02-01T18:54:38;57.92;;;39.45;;
20443;SDS011;10381;53.730;10.010;2023-02-01T18:58:38;68.53;;;39.97;;
20443;SDS011;10381;53.730;10.010;2023-02-01T19:02:39;53.75;;;35.72;;
20443;SDS011;10381;53.730;10.010;2023-02-01T19:06:39;60.60;;;40.47;;
20443;SDS011;10381;53.730;10.010;2023-02-01T19:10:42;43.23;;;32.17;;
20443;SDS011;10381;53.730;10.010;2023-02-01T19:14:43;43.13;;;29.70;;
20443;SDS011;10381;53.730;10.010;2023-02-01T19:18:43;55.63;;;37.00;;
20443;SDS011;10381;53.730;10.010;2023-02-01T19:22:44;53.67;;;35.70;;
20443;SDS011;10381;53.730;10.010;2023-02-01T19:26:45;92.07;;;83.22;;
20443;SDS011;10381;53.730;10.010;2023-02-01T19:30:47;99.35;;;88.68;;
20443;SDS011;10381;53.730;10.010;2023-02-01T19:34:48;90.07;;;81.80;;
20443;SDS011;10381;53.730;10.010;2023-02-01T19:38:48;102.60;;;92.65;;
20443;SDS011;10381;53.730;10.010;2023-02-01T19:42:49;132.38;;;119.10;;
20443;SDS011;10381;53.730;10.010;2023-02-01T19:46:50;118.75;;;108.63;;
20443;SDS011;10381;53.730;10.010;2023-02-01T19:50:50;119.20;;;109.03;;
20443;SDS011;10381;53.730;10.010;2023-02-01T19:54:50;129.55;;;117.85;;
20443;SDS011;10381;53.730;10.010;2023-02-01T19:58:50;91.50;;;83.23;;
20443;SDS011;10381;53.730;10.010;2023-02-01T20:02:51;122.97;;;111.72;;
20443;SDS011;10381;53.730;10.010;2023-02-01T20:06:51;127.97;;;116.70;;
20443;SDS011;10381;53.730;10.010;2023-02-01T20:10:53;144.30;;;131.05;;
20443;SDS011;10381;53.730;10.010;2023-02-01T20:14:54;134.13;;;122.28;;
20443;SDS011;10381;53.730;10.010;2023-02-01T20:18:55;165.10;;;149.52;;
20443;SDS011;10381;53.730;10.010;2023-02-01T20:22:55;160.53;;;144.80;;
20443;SDS011;10381;53.730;10.010;2023-02-01T20:26:56;174.67;;;157.17;;
20443;SDS011;10381;53.730;10.010;2023-02-01T20:30:56;167.00;;;151.57;;
20443;SDS011;10381;53.730;10.010;2023-02-01T20:34:57;160.07;;;145.68;;
20443;SDS011;10381;53.730;10.010;2023-02-01T20:38:57;121.90;;;110.40;;
20443;SDS011;10381;53.730;10.010;2023-02-01T20:42:58;116.63;;;96.35;;
20443;SDS011;10381;53.730;10.010;2023-02-01T20:46:58;90.60;;;79.17;;
20443;SDS011;10381;53.730;10.010;2023-02-01T20:50:59;101.40;;;91.22;;
20443;SDS011;10381;53.730;10.010;2023-02-01T20:54:59;89.03;;;76.82;;
20443;SDS011;10381;53.730;10.010;2023-02-01T20:59:00;81.70;;;64.30;;
20443;SDS011;10381;53.730;10.010;2023-02-01T21:03:03;117.70;;;105.00;;
20443;SDS011;10381;53.730;10.010;2023-02-01T21:07:03;738.07;;;676.50;;
20443;SDS011;10381;53.730;10.010;2023-02-01T21:15:06;1255.60;;;812.50;;
20443;SDS011;10381;53.730;10.010;2023-02-01T21:19:07;1325.15;;;812.03;;
20443;SDS011;10381;53.730;10.010;2023-02-01T21:23:08;1383.95;;;800.38;;
20443;SDS011;10381;53.730;10.010;2023-02-01T21:27:09;1368.80;;;805.33;;
20443;SDS011;10381;53.730;10.010;2023-02-01T21:31:09;1338.10;;;835.38;;
20443;SDS011;10381;53.730;10.010;2023-02-01T21:35:11;1338.03;;;877.20;;
20443;SDS011;10381;53.730;10.010;2023-02-01T21:39:11;1303.57;;;903.73;;
20443;SDS011;10381;53.730;10.010;2023-02-01T21:43:11;1209.78;;;928.10;;
20443;SDS011;10381;53.730;10.010;2023-02-01T21:47:12;1182.90;;;925.07;;
20443;SDS011;10381;53.730;10.010;2023-02-01T21:51:16;1164.13;;;936.50;;
20443;SDS011;10381;53.730;10.010;2023-02-01T21:55:17;1129.47;;;946.28;;
20443;SDS011;10381;53.730;10.010;2023-02-01T21:59:17;1127.18;;;950.33;;
20443;SDS011;10381;53.730;10.010;2023-02-01T22:03:18;1194.88;;;939.47;;
20443;SDS011;10381;53.730;10.010;2023-02-01T22:07:18;1262.50;;;931.67;;
20443;SDS011;10381;53.730;10.010;2023-02-01T22:11:18;1351.93;;;909.75;;
20443;SDS011;10381;53.730;10.010;2023-02-01T22:15:19;1382.47;;;913.83;;
20443;SDS011;10381;53.730;10.010;2023-02-01T22:19:19;1370.93;;;902.70;;
20443;SDS011;10381;53.730;10.010;2023-02-01T22:23:19;1223.27;;;925.20;;
20443;SDS011;10381;53.730;10.010;2023-02-01T22:27:19;1252.17;;;908.23;;
20443;SDS011;10381;53.730;10.010;2023-02-01T22:31:20;1260.40;;;903.58;;
20443;SDS011;10381;53.730;10.010;2023-02-01T22:35:20;1237.60;;;908.70;;
20443;SDS011;10381;53.730;10.010;2023-02-01T22:39:21;1192.03;;;910.53;;
20443;SDS011;10381;53.730;10.010;2023-02-01T22:43:24;1077.25;;;910.80;;
20443;SDS011;10381;53.730;10.010;2023-02-01T22:47:25;989.67;;;882.78;;
20443;SDS011;10381;53.730;10.010;2023-02-01T22:51:28;950.42;;;852.90;;
20443;SDS011;10381;53.730;10.010;2023-02-01T22:55:30;1010.92;;;898.72;;
20443;SDS011;10381;53.730;10.010;2023-02-01T22:59:30;1095.68;;;901.47;;
20443;SDS011;10381;53.730;10.010;2023-02-01T23:03:31;1166.60;;;893.07;;
20443;SDS011;10381;53.730;10.010;2023-02-01T23:07:31;1197.05;;;886.28;;
20443;SDS011;10381;53.730;10.010;2023-02-01T23:11:31;1287.37;;;871.70;;
20443;SDS011;10381;53.730;10.010;2023-02-01T23:15:31;1369.05;;;888.95;;
20443;SDS011;10381;53.730;10.010;2023-02-01T23:19:32;1459.33;;;908.63;;
20443;SDS011;10381;53.730;10.010;2023-02-01T23:23:32;1455.93;;;913.63;;
20443;SDS011;10381;53.730;10.010;2023-02-01T23:27:32;1439.20;;;920.17;;
20443;SDS011;10381;53.730;10.010;2023-02-01T23:31:33;1408.63;;;924.43;;
20443;SDS011;10381;53.730;10.010;2023-02-01T23:35:34;1358.72;;;929.75;;
20443;SDS011;10381;53.730;10.010;2023-02-01T23:39:35;1319.72;;;937.03;;
20443;SDS011;10381;53.730;10.010;2023-02-01T23:43:35;1258.80;;;935.13;;
20443;SDS011;10381;53.730;10.010;2023-02-01T23:47:54;1173.13;;;931.83;;
20443;SDS011;10381;53.730;10.010;2023-02-01T23:51:54;1199.37;;;937.90;;
20443;SDS011;10381;53.730;10.010;2023-02-01T23:55:54;1124.67;;;928.97;;
20443;SDS011;10381;53.730;10.010;2023-02-01T23:59:55;1088.00;;;921.85;;
